createdAt,value
2019-01-11T00:20:39.579Z,98608.73
2019-01-11T00:29:21.118Z,98615.63
2019-01-11T00:38:34.925Z,98610.08
2019-01-11T00:44:43.516Z,98604.66
2019-01-11T01:05:54.189Z,98548.80
2019-01-11T01:09:20.646Z,98574.29
2019-01-11T01:12:10.518Z,98577.10
2019-01-11T01:15:17.925Z,98571.58
2019-01-11T01:18:25.071Z,98567.53
2019-01-11T01:21:06.970Z,98571.94
2019-01-11T01:30:47.324Z,98521.77
2019-01-11T01:33:54.977Z,98571.39
2019-01-11T01:36:44.685Z,98567.36
2019-01-11T01:43:25.176Z,98569.92
2019-01-11T01:46:14.845Z,98567.14
2019-01-11T01:49:04.443Z,98568.45
2019-01-11T01:51:54.286Z,98569.52
2019-01-11T01:54:43.968Z,98567.86
2019-01-11T01:57:33.544Z,98562.89
2019-01-11T02:01:16.240Z,98522.09
2019-01-11T02:04:05.817Z,98564.20
2019-01-11T02:10:07.264Z,98537.94
2019-01-11T02:12:56.972Z,98539.86
2019-01-11T02:19:34.358Z,98533.23
2019-01-11T02:22:16.514Z,98537.02
2019-01-11T02:33:12.863Z,98479.92
2019-01-11T02:36:23.461Z,98530.84
2019-01-11T02:39:13.066Z,98521.23
2019-01-11T02:45:12.116Z,98502.58
2019-01-11T02:48:01.706Z,98520.16
2019-01-11T02:50:51.309Z,98481.77
2019-01-11T02:53:40.876Z,98469.41
2019-01-11T02:56:47.955Z,98473.61
2019-01-11T02:59:37.547Z,98482.25
2019-01-11T03:02:27.124Z,98498.42
2019-01-11T03:09:08.215Z,98504.63
2019-01-11T03:11:57.914Z,98504.30
2019-01-11T03:14:47.514Z,98497.30
2019-01-11T03:17:29.627Z,98497.47
2019-01-11T03:24:05.477Z,98449.70
2019-01-11T03:26:55.050Z,98496.25
2019-01-11T03:29:44.609Z,98497.49
2019-01-11T03:32:34.169Z,98495.22
2019-01-11T03:35:59.072Z,98492.51
2019-01-11T03:38:48.675Z,98491.28
2019-01-11T03:44:48.315Z,98480.73
2019-01-11T03:51:25.514Z,98474.92
2019-01-11T03:54:15.090Z,98479.95
2019-01-11T03:57:04.663Z,98480.11
2019-01-11T03:59:54.244Z,98477.94
2019-01-11T04:10:42.031Z,98483.61
2019-01-11T04:13:31.665Z,98440.95
2019-01-11T04:16:20.437Z,98483.38
2019-01-11T04:25:21.205Z,98472.50
2019-01-11T04:28:10.781Z,98471.35
2019-01-11T04:31:00.341Z,98462.58
2019-01-11T04:33:49.950Z,98461.48
2019-01-11T04:36:39.515Z,98460.93
2019-01-11T04:42:26.192Z,98462.13
2019-01-11T04:45:16.125Z,98465.20
2019-01-11T04:48:05.697Z,98465.99
2019-01-11T04:50:55.251Z,98430.41
2019-01-11T04:53:44.837Z,98463.96
2019-01-11T04:56:34.405Z,98464.89
2019-01-11T04:59:24.401Z,98457.59
2019-01-11T05:02:14.447Z,98461.80
2019-01-11T05:05:04.936Z,98446.09
2019-01-11T05:07:54.592Z,98412.28
2019-01-11T05:10:44.194Z,98433.56
2019-01-11T05:13:52.652Z,98442.27
2019-01-11T05:16:39.442Z,98431.59
2019-01-11T05:19:26.347Z,98426.30
2019-01-11T05:22:15.941Z,98431.65
2019-01-11T05:25:06.119Z,98399.95
2019-01-11T05:27:55.715Z,98383.80
2019-01-11T05:30:45.592Z,98351.31
2019-01-11T05:33:35.172Z,98375.00
2019-01-11T05:40:38.122Z,98383.59
2019-01-11T05:43:27.700Z,98373.45
2019-01-11T05:47:12.966Z,98368.50
2019-01-11T05:50:02.942Z,98364.43
2019-01-11T05:52:52.516Z,98365.53
2019-01-11T05:56:00.977Z,98352.17
2019-01-11T06:05:20.327Z,98345.75
2019-01-11T06:11:55.262Z,98339.70
2019-01-11T06:14:44.791Z,98339.25
2019-01-11T06:17:27.148Z,98331.55
2019-01-11T06:20:37.542Z,98333.48
2019-01-11T06:23:27.764Z,98335.28
2019-01-11T06:26:17.347Z,98332.50
2019-01-11T06:29:06.930Z,98334.28
2019-01-11T06:34:53.546Z,98304.39
2019-01-11T06:37:43.214Z,98352.80
2019-01-11T06:46:17.266Z,98437.24
2019-01-11T06:49:06.846Z,98386.91
2019-01-11T06:51:56.464Z,98432.23
2019-01-11T06:54:46.164Z,98434.58
2019-01-11T06:57:35.740Z,98435.73
2019-01-11T07:00:25.326Z,98433.41
2019-01-11T07:03:14.912Z,98439.02
2019-01-11T07:06:04.599Z,98441.31
2019-01-11T07:09:31.064Z,98443.56
2019-01-11T07:15:17.214Z,98388.73
2019-01-11T07:21:11.584Z,98428.53
2019-01-11T07:29:54.338Z,98432.32
2019-01-11T07:35:59.556Z,98393.80
2019-01-11T07:38:49.145Z,98302.31
2019-01-11T07:41:38.722Z,98332.81
2019-01-11T07:44:28.382Z,98316.04
2019-01-11T07:47:18.039Z,98313.25
2019-01-11T07:50:49.176Z,98308.73
2019-01-11T07:53:35.831Z,98298.80
2019-01-11T07:56:25.396Z,98302.83
2019-01-11T07:59:50.591Z,98301.44
2019-01-11T08:02:41.136Z,98304.95
2019-01-11T08:06:06.261Z,98301.98
2019-01-11T08:09:50.198Z,98258.39
2019-01-11T08:15:29.268Z,98263.75
2019-01-11T08:18:11.617Z,98262.27
2019-01-11T08:21:01.215Z,98332.97
2019-01-11T08:23:51.066Z,98338.08
2019-01-11T08:33:33.965Z,98338.33
2019-01-11T08:36:24.908Z,98337.59
2019-01-11T08:39:14.527Z,98325.41
2019-01-11T08:42:04.184Z,98334.25
2019-01-11T08:45:30.451Z,98334.34
2019-01-11T08:52:19.962Z,98302.25
2019-01-11T08:55:09.567Z,98316.05
2019-01-11T08:58:16.700Z,98315.97
2019-01-11T09:01:41.481Z,98318.81
2019-01-11T09:04:31.359Z,98326.16
2019-01-11T09:07:20.960Z,98311.79
2019-01-11T09:13:00.065Z,98310.08
2019-01-11T09:15:49.685Z,98307.88
2019-01-11T09:18:54.154Z,98306.52
2019-01-11T09:21:43.930Z,98301.83
2019-01-11T09:24:33.639Z,98303.41
2019-01-11T09:34:10.551Z,98282.31
2019-01-11T09:37:00.125Z,98288.09
2019-01-11T09:39:49.953Z,98298.75
2019-01-11T09:42:39.565Z,98283.88
2019-01-11T09:48:57.407Z,98290.73
2019-01-11T09:51:47.101Z,98289.15
2019-01-11T09:54:36.760Z,98225.20
2019-01-11T09:57:26.690Z,98252.70
2019-01-11T10:00:39.019Z,98248.55
2019-01-11T10:03:28.943Z,98121.22
2019-01-11T10:06:18.961Z,97922.41
2019-01-11T10:09:10.197Z,97752.25
2019-01-11T10:11:59.774Z,97652.13
2019-01-11T10:18:34.461Z,97646.02
2019-01-11T10:21:41.941Z,97707.83
2019-01-11T10:24:31.534Z,97726.79
2019-01-11T10:27:21.174Z,97729.35
2019-01-11T10:30:31.435Z,97732.16
2019-01-11T10:33:21.335Z,97741.91
2019-01-11T10:38:58.405Z,97714.29
2019-01-11T10:41:47.990Z,97724.53
2019-01-11T10:44:37.948Z,97724.72
2019-01-11T10:47:27.528Z,97714.44
2019-01-11T10:50:17.790Z,97710.76
2019-01-11T10:53:07.770Z,97699.06
2019-01-11T10:55:57.447Z,97676.89
2019-01-11T10:58:47.167Z,97718.17
2019-01-11T11:04:45.381Z,97889.23
2019-01-11T11:07:35.030Z,97887.10
2019-01-11T11:10:24.615Z,97892.43
2019-01-11T11:13:14.491Z,97886.12
2019-01-11T11:16:04.108Z,97853.22
2019-01-11T11:18:45.917Z,97891.51
2019-01-11T11:21:34.814Z,97898.56
2019-01-11T11:51:19.269Z,97940.23
2019-01-11T12:08:49.292Z,98292.18
2019-01-11T12:26:23.365Z,98200.23
2019-01-11T12:29:06.458Z,98222.14
2019-01-11T12:44:00.042Z,98210.77
2019-01-11T12:52:51.571Z,98199.09
2019-01-11T12:58:31.566Z,98194.16
2019-01-11T13:07:14.191Z,98197.63
2019-01-11T13:27:50.263Z,98282.70
2019-01-11T13:33:35.901Z,98279.36
2019-01-11T13:36:25.601Z,98260.07
2019-01-11T13:39:15.215Z,98294.81
2019-01-11T13:42:05.123Z,98292.24
2019-01-11T13:44:54.700Z,98299.12
2019-01-11T13:47:44.401Z,98300.23
2019-01-11T13:50:53.122Z,98305.88
2019-01-11T13:53:42.883Z,98307.93
2019-01-11T13:56:32.439Z,98325.20
2019-01-11T13:59:22.020Z,98320.45
2019-01-11T14:02:11.618Z,98325.23
2019-01-11T14:05:01.322Z,98322.50
2019-01-11T14:07:50.903Z,98325.29
2019-01-11T14:10:40.537Z,98326.76
2019-01-11T14:13:30.855Z,98329.42
2019-01-11T14:16:20.435Z,98325.83
2019-01-11T14:19:10.065Z,98323.15
2019-01-11T14:21:59.759Z,98322.80
2019-01-11T14:24:49.352Z,98325.83
2019-01-11T14:27:38.924Z,98314.89
2019-01-11T14:30:28.566Z,98313.33
2019-01-11T14:33:18.258Z,98309.13
2019-01-11T14:36:08.151Z,98301.94
2019-01-11T14:39:17.519Z,98306.72
2019-01-11T14:42:07.102Z,98300.10
2019-01-11T14:44:56.722Z,98300.69
2019-01-11T14:47:46.399Z,98302.19
2019-01-11T14:50:35.971Z,98289.75
2019-01-11T14:53:25.638Z,98283.39
2019-01-11T14:56:15.531Z,98283.93
2019-01-11T14:59:05.211Z,98240.09
2019-01-11T15:01:54.795Z,98272.28
2019-01-11T15:04:44.440Z,98266.91
2019-01-11T15:07:34.140Z,98269.41
2019-01-11T15:10:42.631Z,98270.64
2019-01-11T15:13:32.325Z,98258.07
2019-01-11T15:16:21.943Z,98253.28
2019-01-11T15:19:30.443Z,98210.67
2019-01-11T15:22:20.021Z,98202.23
2019-01-11T15:25:10.067Z,98196.73
2019-01-11T15:27:59.942Z,98194.69
2019-01-11T15:30:49.555Z,98174.28
2019-01-11T15:33:57.987Z,98167.64
2019-01-11T15:36:47.585Z,98179.36
2019-01-11T15:39:37.254Z,98182.33
2019-01-11T15:42:26.880Z,98168.70
2019-01-11T15:45:16.443Z,98178.06
2019-01-11T15:48:06.071Z,98189.39
2019-01-11T15:51:17.738Z,98177.67
2019-01-11T15:54:07.575Z,98179.05
2019-01-11T15:57:16.077Z,98176.95
2019-01-11T16:03:35.644Z,98181.22
2019-01-11T16:06:44.406Z,98169.81
2019-01-11T16:10:24.258Z,98171.71
2019-01-11T16:16:59.330Z,98170.02
2019-01-11T16:19:48.935Z,98163.35
2019-01-11T16:22:39.665Z,98165.84
2019-01-11T16:25:29.903Z,98163.00
2019-01-11T16:31:19.797Z,98152.27
2019-01-11T16:34:28.312Z,98130.47
2019-01-11T16:37:17.859Z,98151.94
2019-01-11T16:40:29.225Z,98156.86
2019-01-11T16:43:26.406Z,98161.00
2019-01-11T16:46:15.982Z,98154.77
2019-01-11T16:49:05.572Z,98156.34
2019-01-11T16:51:55.148Z,98154.91
2019-01-11T16:54:44.741Z,98155.75
2019-01-11T16:57:34.669Z,98138.66
2019-01-11T17:00:24.643Z,98142.40
2019-01-11T17:03:14.237Z,98160.45
2019-01-11T17:06:03.821Z,98163.42
2019-01-11T17:08:54.076Z,98171.65
2019-01-11T17:11:43.664Z,98172.13
2019-01-11T17:14:33.275Z,98167.80
2019-01-11T17:17:15.572Z,98154.95
2019-01-11T17:20:27.022Z,98151.94
2019-01-11T17:23:16.601Z,98148.94
2019-01-11T17:26:06.216Z,98153.38
2019-01-11T17:28:56.503Z,98151.23
2019-01-11T17:31:46.100Z,98118.77
2019-01-11T17:34:35.717Z,98158.35
2019-01-11T17:37:25.305Z,98148.75
2019-01-11T17:40:36.106Z,98149.86
2019-01-11T17:43:25.688Z,98139.31
2019-01-11T17:46:15.284Z,98128.72
2019-01-11T17:49:25.267Z,98112.67
2019-01-11T17:52:14.939Z,98153.85
2019-01-11T17:55:04.558Z,98143.75
2019-01-11T17:57:54.131Z,98136.01
2019-01-11T18:00:43.806Z,98145.32
2019-01-11T18:03:33.367Z,98141.31
2019-01-11T18:06:23.227Z,98136.66
2019-01-11T18:09:13.215Z,98127.58
2019-01-11T18:12:02.839Z,98122.12
2019-01-11T18:14:52.399Z,98127.77
2019-01-11T18:17:34.818Z,98135.81
2019-01-11T18:20:48.983Z,98135.93
2019-01-11T18:23:38.908Z,98130.19
2019-01-11T18:26:28.502Z,98125.33
2019-01-11T18:29:18.553Z,98131.23
2019-01-11T18:32:08.482Z,98130.43
2019-01-11T18:34:58.031Z,98136.58
2019-01-11T18:37:47.621Z,98141.71
2019-01-11T18:40:37.180Z,98142.68
2019-01-11T18:43:26.767Z,98139.79
2019-01-11T18:46:16.339Z,98134.09
2019-01-11T18:49:05.912Z,98154.45
2019-01-11T18:54:50.509Z,98155.81
2019-01-11T18:57:40.096Z,98154.70
2019-01-11T19:00:29.687Z,98151.20
2019-01-11T19:03:19.670Z,98156.09
2019-01-11T19:09:19.857Z,98165.25
2019-01-11T19:15:26.658Z,98164.09
2019-01-11T19:18:08.552Z,98160.77
2019-01-11T19:20:58.552Z,98158.02
2019-01-11T19:23:48.156Z,98158.39
2019-01-11T19:26:37.718Z,98154.73
2019-01-11T19:29:27.327Z,98148.59
2019-01-11T19:40:07.530Z,98157.41
2019-01-11T19:47:00.429Z,98135.61
2019-01-11T19:49:50.909Z,98151.79
2019-01-11T19:55:48.892Z,98154.56
2019-01-11T20:01:27.982Z,98146.08
2019-01-11T20:04:17.635Z,98112.05
2019-01-11T20:07:07.284Z,98134.54
2019-01-11T20:09:56.868Z,98128.88
2019-01-11T20:12:46.492Z,98149.82
2019-01-11T20:15:36.071Z,98122.27
2019-01-11T20:18:20.731Z,98144.72
2019-01-11T20:21:11.650Z,98132.73
2019-01-11T20:24:01.219Z,98130.69
2019-01-11T20:26:51.431Z,98129.77
2019-01-11T20:29:41.309Z,98134.30
2019-01-11T20:32:30.941Z,98135.55
2019-01-11T20:35:21.547Z,98121.45
2019-01-11T20:38:11.249Z,98122.66
2019-01-11T20:41:01.134Z,98118.23
2019-01-11T20:43:50.769Z,98124.86
2019-01-11T20:46:40.358Z,98120.28
2019-01-11T20:49:29.931Z,98102.13
2019-01-11T20:52:19.656Z,98121.88
2019-01-11T20:55:09.434Z,98115.97
2019-01-11T20:57:59.236Z,98122.10
2019-01-11T21:00:49.083Z,98100.39
2019-01-11T21:03:38.650Z,98132.36
2019-01-11T21:06:28.340Z,98131.95
2019-01-11T21:09:18.121Z,98124.65
2019-01-11T21:12:25.645Z,98124.98
2019-01-11T21:15:16.063Z,98128.64
2019-01-11T21:18:04.477Z,98117.16
2019-01-11T21:20:47.412Z,98130.80
2019-01-11T21:23:37.241Z,98102.30
2019-01-11T21:26:27.302Z,98131.84
2019-01-11T21:29:16.971Z,98137.27
2019-01-11T21:32:06.725Z,98108.70
2019-01-11T21:34:56.376Z,98116.96
2019-01-11T21:37:46.537Z,98130.48
2019-01-11T21:40:36.442Z,98133.41
2019-01-11T21:43:26.135Z,98112.09
2019-01-11T21:46:16.004Z,98137.95
2019-01-11T21:49:06.025Z,98135.98
2019-01-11T21:51:55.863Z,98133.37
2019-01-11T21:57:46.527Z,98140.16
2019-01-11T22:01:16.995Z,98144.89
2019-01-11T22:04:06.617Z,98150.20
2019-01-11T22:07:08.173Z,98144.65
2019-01-11T22:09:47.907Z,98149.41
2019-01-11T22:12:37.468Z,98149.75
2019-01-11T22:15:27.372Z,98124.95
2019-01-11T22:18:10.096Z,98141.44
2019-01-11T22:20:59.754Z,98151.88
2019-01-11T22:23:49.636Z,98150.56
2019-01-11T22:26:39.684Z,98142.97
2019-01-11T22:29:29.432Z,98140.70
2019-01-11T22:32:19.242Z,98133.70
2019-01-11T22:35:08.913Z,98142.80
2019-01-11T22:37:58.495Z,98145.03
2019-01-11T22:40:48.067Z,98144.05
2019-01-11T22:43:37.641Z,98139.58
2019-01-11T22:46:27.222Z,98141.81
2019-01-11T22:49:16.821Z,98146.17
2019-01-11T22:52:06.776Z,98141.63
2019-01-11T22:54:56.680Z,98140.59
2019-01-11T22:57:46.396Z,98136.34
2019-01-11T23:00:57.871Z,98144.78
2019-01-11T23:03:50.226Z,98133.96
2019-01-11T23:07:24.488Z,98117.23
2019-01-11T23:10:52.329Z,98114.62
2019-01-11T23:13:42.065Z,98136.63
2019-01-11T23:16:52.374Z,98146.81
2019-01-11T23:20:00.857Z,98141.61
2019-01-11T23:22:51.262Z,98130.28
2019-01-11T23:38:59.530Z,98140.59
2019-01-11T23:44:39.525Z,98149.44
2019-01-11T23:50:31.921Z,98144.84
